Terminal Aerodrome Forecast
Issued by NWS Charleston, WV

Current Version | Previous Version | Graphics & Text | Print | Product List | Glossary On
Versions: 1 2 3 4 5 6 7 8 9 10 11 12 13 14 15 16 17 18 19 20 21 22 23 24 25 26
000
FTUS41 KRLX 031100
TAFBKW
TAF
KBKW 031121Z 0312/0412 14012G22KT P6SM OVC120
     FM031300 15013G21KT P6SM -SHRA OVC050
     FM031500 17010G20KT P6SM -SHRA OVC015
     FM031700 19010G20KT 3SM -SHRA OVC008
     FM040000 18009KT 5SM BR OVC008
     FM040300 22009KT 1SM -SHRA BR OVC004=

USA.gov is the U.S. government's official web portal to all federal, state and local government web resources and services.